Time;durP1;ratioP1;P1;durP2;ratioP2;P2;SDS_P1;SDS_P2;PMS_P1;PMS_P2;Temp;Humidity;BMP_temperature;BMP_pressure;BME280_temperature;BME280_humidity;BME280_pressure;Samples;Min_cycle;Max_cycle;Signal;HPM_P1;HPM_P2
2022/03/07 00:01:35;;;;;;;;;;;0.80;99.90;;;;;;5018373;28;20402;-83
2022/03/07 00:04:02;;;;;;;;;;;0.80;99.90;;;;;;5018461;28;19913;-83
2022/03/07 00:06:27;;;;;;;;;;;0.70;99.90;;;;;;5011483;28;19917;-83
2022/03/07 00:08:53;;;;;;;;;;;0.70;99.90;;;;;;5016454;28;20436;-83
2022/03/07 00:11:19;;;;;;;;;;;0.70;99.90;;;;;;5032847;28;19928;-83
2022/03/07 00:13:45;;;;;;;;;;;0.70;99.90;;;;;;5017069;28;20389;-83
2022/03/07 00:16:11;;;;;;;;;;;0.60;99.90;;;;;;5016322;28;19914;-83
2022/03/07 00:18:36;;;;;;;;;;;0.60;99.90;;;;;;5017480;28;19921;-83
2022/03/07 00:21:02;;;;;;;;;;;0.60;99.90;;;;;;5016015;28;19913;-83
2022/03/07 00:23:28;;;;;;;;;;;0.60;99.90;;;;;;5020881;28;19920;-83
2022/03/07 00:25:53;;;;;;;;;;;0.60;99.90;;;;;;5034249;28;20293;-83
2022/03/07 00:28:19;;;;;;;;;;;0.60;99.90;;;;;;5017817;28;19949;-83
2022/03/07 00:30:44;;;;;;;;;;;0.60;99.90;;;;;;5019655;28;19913;-83
2022/03/07 00:33:10;;;;;;;;;;;0.60;99.90;;;;;;5018142;28;19941;-83
2022/03/07 00:35:36;;;;;;;;;;;0.60;99.90;;;;;;5023575;28;20052;-84
2022/03/07 00:38:02;;;;;;;;;;;0.60;99.90;;;;;;5032240;28;19920;-83
2022/03/07 00:40:27;;;;;;;;;;;0.60;99.90;;;;;;5022680;28;19917;-83
2022/03/07 00:42:53;;;;;;;;;;;0.70;99.90;;;;;;5021040;28;19914;-84
2022/03/07 00:45:18;;;;;;;;;;;0.70;99.90;;;;;;5020642;28;19920;-83
2022/03/07 00:47:43;;;;;;;;;;;0.70;99.90;;;;;;5020767;28;19969;-83
2022/03/07 00:50:09;;;;;;;;;;;0.70;99.90;;;;;;5018878;28;19994;-83
2022/03/07 00:52:35;;;;;;;;;;;0.80;99.90;;;;;;5033317;28;19925;-83
2022/03/07 00:55:00;;;;;;;;;;;0.80;99.90;;;;;;5022528;28;19940;-83
2022/03/07 00:57:26;;;;;;;;;;;0.80;99.90;;;;;;5022658;28;19942;-83
2022/03/07 00:59:51;;;;;;;;;;;0.80;99.90;;;;;;5021035;28;19921;-83
2022/03/07 01:02:17;;;;;;;;;;;0.80;99.90;;;;;;5017346;28;19917;-83
2022/03/07 01:04:42;;;;;;;;;;;0.90;99.90;;;;;;5021969;28;20004;-83
2022/03/07 01:07:09;;;;;;;;;;;0.90;99.90;;;;;;5018257;28;19913;-83
2022/03/07 01:09:35;;;;;;;;;;;0.90;99.90;;;;;;5018200;28;19919;-83
2022/03/07 01:12:00;;;;;;;;;;;0.90;99.90;;;;;;5011594;28;19953;-84
2022/03/07 01:14:26;;;;;;;;;;;1.00;99.90;;;;;;5013003;28;19925;-83
2022/03/07 01:16:51;;;;;;;;;;;0.90;99.90;;;;;;5014635;28;19920;-83
2022/03/07 01:19:17;;;;;;;;;;;0.90;99.90;;;;;;5016277;28;19924;-84
2022/03/07 01:21:43;;;;;;;;;;;1.00;99.90;;;;;;5016691;28;20400;-83
2022/03/07 01:24:09;;;;;;;;;;;1.00;99.90;;;;;;5016715;28;19913;-83
2022/03/07 01:26:35;;;;;;;;;;;1.00;99.90;;;;;;5011077;28;19968;-83
2022/03/07 01:29:00;;;;;;;;;;;1.00;99.90;;;;;;5017351;28;19959;-83
2022/03/07 01:31:26;;;;;;;;;;;1.00;99.90;;;;;;5024699;28;19917;-83
2022/03/07 01:33:51;;;;;;;;;;;1.00;99.90;;;;;;5019306;28;19957;-82
2022/03/07 01:36:17;;;;;;;;;;;1.00;99.90;;;;;;5020374;28;19918;-83
2022/03/07 01:38:42;;;;;;;;;;;1.00;99.90;;;;;;5017891;28;19925;-83
2022/03/07 01:41:08;;;;;;;;;;;1.00;99.90;;;;;;5023404;28;19913;-83
2022/03/07 01:43:33;;;;;;;;;;;1.00;99.90;;;;;;5022531;28;19913;-83
2022/03/07 01:45:59;;;;;;;;;;;1.00;99.90;;;;;;5021855;28;19917;-83
2022/03/07 01:48:24;;;;;;;;;;;1.00;99.90;;;;;;5018524;28;19953;-83
2022/03/07 01:50:50;;;;;;;;;;;1.00;99.90;;;;;;5019106;28;19913;-83
2022/03/07 01:53:16;;;;;;;;;;;0.90;99.90;;;;;;5017135;28;19921;-83
2022/03/07 01:55:42;;;;;;;;;;;0.90;99.90;;;;;;5017774;28;19925;-83
2022/03/07 01:58:07;;;;;;;;;;;0.90;99.90;;;;;;5018491;28;19921;-83
2022/03/07 02:00:33;;;;;;;;;;;0.90;99.90;;;;;;5023688;28;19913;-83
2022/03/07 02:02:59;;;;;;;;;;;0.90;99.90;;;;;;5017578;28;19914;-83
2022/03/07 02:05:24;;;;;;;;;;;0.90;99.90;;;;;;5019373;28;19913;-83
2022/03/07 02:07:50;;;;;;;;;;;0.90;99.90;;;;;;5017712;28;19917;-83
2022/03/07 02:10:15;;;;;;;;;;;0.80;99.90;;;;;;5019120;28;19914;-83
2022/03/07 02:12:41;;;;;;;;;;;0.80;99.90;;;;;;5024088;28;20381;-83
2022/03/07 02:15:10;;;;;;;;;;;0.80;99.90;;;;;;5017104;28;20028;-83
2022/03/07 02:17:36;;;;;;;;;;;0.70;99.90;;;;;;5019430;28;19937;-83
2022/03/07 02:20:01;;;;;;;;;;;0.70;99.90;;;;;;5034118;28;19918;-83
2022/03/07 02:22:26;;;;;;;;;;;0.60;99.90;;;;;;5019777;28;20386;-83
2022/03/07 02:24:52;;;;;;;;;;;0.60;99.90;;;;;;5012187;28;20008;-83
2022/03/07 02:27:18;;;;;;;;;;;0.60;99.90;;;;;;5016251;28;19977;-83
2022/03/07 02:29:44;;;;;;;;;;;0.60;99.90;;;;;;5013653;28;19976;-83
2022/03/07 02:32:10;;;;;;;;;;;0.50;99.90;;;;;;5016959;28;20012;-83
2022/03/07 02:34:36;;;;;;;;;;;0.50;99.90;;;;;;5019526;28;19965;-83
2022/03/07 02:37:01;;;;;;;;;;;0.50;99.90;;;;;;5020254;28;19925;-83
2022/03/07 02:39:27;;;;;;;;;;;0.50;99.90;;;;;;5026581;28;19921;-83
2022/03/07 02:41:54;;;;;;;;;;;0.40;99.90;;;;;;5019732;28;19917;-83
2022/03/07 02:44:19;;;;;;;;;;;0.40;99.90;;;;;;5019408;28;19914;-83
2022/03/07 02:46:45;;;;;;;;;;;0.40;99.90;;;;;;5027671;28;19936;-83
2022/03/07 02:49:10;;;;;;;;;;;0.40;99.90;;;;;;5035985;28;19913;-83
2022/03/07 02:51:36;;;;;;;;;;;0.40;99.90;;;;;;5030433;28;19973;-83
2022/03/07 02:54:02;;;;;;;;;;;0.30;99.90;;;;;;5037261;28;19925;-83
2022/03/07 02:56:27;;;;;;;;;;;0.40;99.90;;;;;;5016909;28;19967;-83
2022/03/07 02:58:53;;;;;;;;;;;0.30;99.90;;;;;;5018647;28;19921;-83
2022/03/07 03:01:18;;;;;;;;;;;0.30;99.90;;;;;;5032317;28;20284;-83
2022/03/07 03:03:44;;;;;;;;;;;0.30;99.90;;;;;;5016883;28;19952;-83
2022/03/07 03:06:10;;;;;;;;;;;0.30;99.90;;;;;;5019004;28;19956;-83
2022/03/07 03:08:35;;;;;;;;;;;0.30;99.90;;;;;;5016210;28;19913;-83
2022/03/07 03:11:01;;;;;;;;;;;0.30;99.90;;;;;;5017219;28;20011;-83
2022/03/07 03:13:27;;;;;;;;;;;0.30;99.90;;;;;;5015485;28;19968;-83
2022/03/07 03:15:53;;;;;;;;;;;0.20;99.90;;;;;;5017699;28;19913;-82
2022/03/07 03:18:19;;;;;;;;;;;0.20;99.90;;;;;;5017498;28;19939;-83
2022/03/07 03:20:46;;;;;;;;;;;0.10;99.90;;;;;;5019548;28;19921;-83
2022/03/07 03:23:11;;;;;;;;;;;0.00;99.90;;;;;;5015805;28;19917;-84
2022/03/07 03:25:37;;;;;;;;;;;0.00;99.90;;;;;;5022547;28;19968;-83
2022/03/07 03:28:03;;;;;;;;;;;-0.10;99.90;;;;;;5015501;28;19913;-83
2022/03/07 03:30:28;;;;;;;;;;;-0.10;99.90;;;;;;5022245;28;19921;-83
2022/03/07 03:32:54;;;;;;;;;;;-0.10;99.90;;;;;;5017441;28;19920;-83
2022/03/07 03:35:19;;;;;;;;;;;-0.10;99.90;;;;;;5020143;28;19922;-83
2022/03/07 03:37:45;;;;;;;;;;;-0.20;99.90;;;;;;5034029;28;19921;-83
2022/03/07 03:40:11;;;;;;;;;;;-0.20;99.90;;;;;;5019150;28;19917;-83
2022/03/07 03:42:36;;;;;;;;;;;-0.30;99.90;;;;;;5023801;28;19924;-83
2022/03/07 03:45:05;;;;;;;;;;;-0.30;99.90;;;;;;5014871;28;20024;-83
2022/03/07 03:47:41;;;;;;;;;;;-0.30;99.90;;;;;;5018798;28;19924;-83
2022/03/07 03:50:08;;;;;;;;;;;-0.30;99.90;;;;;;5016611;28;19918;-83
2022/03/07 03:52:33;;;;;;;;;;;-0.30;99.90;;;;;;5017554;28;19913;-83
2022/03/07 03:54:59;;;;;;;;;;;-0.30;99.90;;;;;;5016501;28;19963;-83
2022/03/07 03:57:24;;;;;;;;;;;-0.30;99.90;;;;;;5017113;28;19913;-84
2022/03/07 03:59:50;;;;;;;;;;;-0.30;99.90;;;;;;5033622;28;19921;-83
2022/03/07 04:02:16;;;;;;;;;;;-0.30;99.90;;;;;;5012758;28;19944;-83
2022/03/07 04:04:41;;;;;;;;;;;-0.40;99.90;;;;;;5017914;28;19955;-83
2022/03/07 04:07:07;;;;;;;;;;;-0.40;99.90;;;;;;5015909;28;19924;-83
2022/03/07 04:09:33;;;;;;;;;;;-0.30;99.90;;;;;;5021013;28;19913;-83
2022/03/07 04:11:59;;;;;;;;;;;-0.30;99.90;;;;;;5020256;28;19917;-83
2022/03/07 04:14:24;;;;;;;;;;;-0.30;99.90;;;;;;5022742;28;19913;-83
2022/03/07 04:16:50;;;;;;;;;;;-0.30;99.90;;;;;;5020008;28;19913;-83
2022/03/07 04:19:15;;;;;;;;;;;-0.40;99.90;;;;;;5019192;28;20269;-83
2022/03/07 04:21:41;;;;;;;;;;;-0.40;99.90;;;;;;5019767;28;19913;-83
2022/03/07 04:24:07;;;;;;;;;;;-0.40;99.90;;;;;;5018032;28;19940;-83
2022/03/07 04:26:32;;;;;;;;;;;-0.40;99.90;;;;;;5020117;28;20374;-83
2022/03/07 04:29:00;;;;;;;;;;;-0.50;99.90;;;;;;5018385;28;19971;-82
2022/03/07 04:31:25;;;;;;;;;;;-0.50;99.90;;;;;;5018965;28;20025;-83
2022/03/07 04:33:50;;;;;;;;;;;-0.50;99.90;;;;;;5021677;28;19941;-83
2022/03/07 04:36:19;;;;;;;;;;;-0.50;99.90;;;;;;5019361;28;19917;-83
2022/03/07 04:38:45;;;;;;;;;;;-0.50;99.90;;;;;;5019970;28;20039;-83
2022/03/07 04:41:10;;;;;;;;;;;-0.60;99.90;;;;;;5019101;28;19960;-83
2022/03/07 04:43:36;;;;;;;;;;;-0.60;99.90;;;;;;5018711;28;19921;-83
2022/03/07 04:46:01;;;;;;;;;;;-0.70;99.90;;;;;;5018007;28;19914;-83
2022/03/07 04:48:27;;;;;;;;;;;-0.70;99.90;;;;;;5020134;28;19914;-83
2022/03/07 04:50:52;;;;;;;;;;;-0.80;99.90;;;;;;5019732;28;19928;-83
2022/03/07 04:53:18;;;;;;;;;;;-0.80;99.90;;;;;;5032395;28;21647;-83
2022/03/07 04:55:43;;;;;;;;;;;-0.90;1.00;;;;;;5022844;28;19955;-83
2022/03/07 04:58:09;;;;;;;;;;;-0.80;1.00;;;;;;5015055;28;19913;-83
2022/03/07 05:00:35;;;;;;;;;;;-0.90;1.00;;;;;;5018324;28;19976;-83
2022/03/07 05:03:00;;;;;;;;;;;-0.90;1.00;;;;;;5019662;28;19963;-83
2022/03/07 05:05:25;;;;;;;;;;;-0.90;1.00;;;;;;5019829;28;19917;-83
2022/03/07 05:07:52;;;;;;;;;;;-0.90;1.00;;;;;;5025540;28;20336;-83
2022/03/07 05:10:18;;;;;;;;;;;-0.90;1.00;;;;;;5021637;28;19917;-83
2022/03/07 05:12:44;;;;;;;;;;;-0.80;1.00;;;;;;5019977;28;19913;-83
2022/03/07 05:15:10;;;;;;;;;;;-0.80;1.00;;;;;;5014972;28;20646;-84
2022/03/07 05:17:42;;;;;;;;;;;-0.80;1.00;;;;;;5017135;28;19935;-84
2022/03/07 05:20:08;;;;;;;;;;;-0.70;1.00;;;;;;5017805;28;19914;-84
2022/03/07 05:22:33;;;;;;;;;;;-0.70;1.00;;;;;;5020243;28;20329;-84
2022/03/07 05:24:59;;;;;;;;;;;-0.70;1.00;;;;;;5020054;28;19922;-83
2022/03/07 05:27:24;;;;;;;;;;;-0.60;1.00;;;;;;5020334;28;19936;-83
2022/03/07 05:29:49;;;;;;;;;;;-0.60;1.00;;;;;;5023536;28;19913;-84
2022/03/07 05:32:15;;;;;;;;;;;-0.60;1.00;;;;;;5020288;28;19921;-84
2022/03/07 05:34:41;;;;;;;;;;;-0.60;1.00;;;;;;5022455;28;19948;-83
2022/03/07 05:37:06;;;;;;;;;;;-0.60;99.90;;;;;;5021856;28;20012;-83
2022/03/07 05:39:35;;;;;;;;;;;-0.60;99.90;;;;;;5022118;28;19928;-84
2022/03/07 05:42:00;;;;;;;;;;;-0.70;99.90;;;;;;5034466;28;19913;-83
2022/03/07 05:44:25;;;;;;;;;;;-0.70;99.90;;;;;;5031146;28;19921;-83
2022/03/07 05:46:51;;;;;;;;;;;-0.70;99.90;;;;;;5020043;28;19914;-83
2022/03/07 05:49:16;;;;;;;;;;;-0.70;99.90;;;;;;5019349;28;19921;-83
2022/03/07 05:51:43;;;;;;;;;;;-0.70;99.90;;;;;;5023835;28;20243;-83
2022/03/07 05:54:09;;;;;;;;;;;-0.70;99.90;;;;;;5019195;28;19989;-83
2022/03/07 05:56:35;;;;;;;;;;;-0.70;99.90;;;;;;5021489;28;19988;-84
2022/03/07 05:59:00;;;;;;;;;;;-0.70;1.00;;;;;;5021162;28;19913;-83
2022/03/07 06:01:26;;;;;;;;;;;-0.60;1.00;;;;;;5021458;28;19951;-83
2022/03/07 06:03:51;;;;;;;;;;;-0.70;1.00;;;;;;5021284;28;19924;-83
2022/03/07 06:06:17;;;;;;;;;;;-0.60;1.00;;;;;;5027004;28;19936;-83
2022/03/07 06:08:42;;;;;;;;;;;-0.60;1.00;;;;;;5047455;28;19980;-83
2022/03/07 06:11:08;;;;;;;;;;;-0.60;99.90;;;;;;5018562;28;20304;-83
2022/03/07 06:13:34;;;;;;;;;;;-0.60;99.90;;;;;;5016410;28;19913;-83
2022/03/07 06:15:59;;;;;;;;;;;-0.60;99.90;;;;;;5014278;28;19921;-83
2022/03/07 06:18:25;;;;;;;;;;;-0.60;99.90;;;;;;5016927;28;19913;-83
2022/03/07 06:20:50;;;;;;;;;;;-0.50;99.90;;;;;;5020770;28;19968;-83
2022/03/07 06:23:16;;;;;;;;;;;-0.50;99.90;;;;;;5018342;28;19948;-83
2022/03/07 06:25:41;;;;;;;;;;;-0.40;99.90;;;;;;5024025;28;19913;-83
2022/03/07 06:28:07;;;;;;;;;;;-0.30;99.90;;;;;;5015700;28;19913;-83
2022/03/07 06:30:32;;;;;;;;;;;-0.30;99.90;;;;;;5017134;28;19914;-83
2022/03/07 06:32:58;;;;;;;;;;;-0.30;99.90;;;;;;5013827;28;19968;-83
2022/03/07 06:35:23;;;;;;;;;;;-0.20;99.90;;;;;;5016671;28;19913;-82
2022/03/07 06:37:49;;;;;;;;;;;-0.10;99.90;;;;;;5017836;28;20311;-82
2022/03/07 06:40:16;;;;;;;;;;;0.00;99.90;;;;;;5015415;28;20004;-82
2022/03/07 06:42:41;;;;;;;;;;;0.10;99.90;;;;;;5016457;28;19962;-82
2022/03/07 06:45:07;;;;;;;;;;;0.30;99.90;;;;;;5014381;28;20413;-82
2022/03/07 06:47:33;;;;;;;;;;;0.40;99.90;;;;;;5007933;28;19964;-82
2022/03/07 06:49:59;;;;;;;;;;;0.50;99.90;;;;;;5014551;28;19925;-82
2022/03/07 06:52:25;;;;;;;;;;;0.70;99.90;;;;;;5015298;28;20000;-82
2022/03/07 06:54:51;;;;;;;;;;;0.90;99.90;;;;;;5014367;28;19963;-83
2022/03/07 06:57:17;;;;;;;;;;;1.00;99.90;;;;;;5019198;28;20000;-83
2022/03/07 06:59:43;;;;;;;;;;;1.20;99.90;;;;;;5015719;28;20392;-83
2022/03/07 07:02:08;;;;;;;;;;;1.50;99.90;;;;;;5015714;28;19948;-83
2022/03/07 07:04:35;;;;;;;;;;;2.60;99.90;;;;;;5017005;28;19964;-83
2022/03/07 07:07:00;;;;;;;;;;;3.00;99.90;;;;;;5018178;28;19913;-83
2022/03/07 07:09:26;;;;;;;;;;;5.40;99.90;;;;;;5016886;28;20013;-84
2022/03/07 07:11:51;;;;;;;;;;;8.70;99.90;;;;;;5017827;28;19945;-84
2022/03/07 07:14:17;;;;;;;;;;;11.40;99.90;;;;;;5017123;28;20430;-85
2022/03/07 07:16:43;;;;;;;;;;;14.10;99.90;;;;;;5024311;28;19913;-85
2022/03/07 07:19:08;;;;;;;;;;;15.20;99.90;;;;;;5015492;28;19921;-84
2022/03/07 07:21:34;;;;;;;;;;;15.70;99.90;;;;;;5015948;28;19920;-85
2022/03/07 07:23:59;;;;;;;;;;;17.40;99.90;;;;;;5015431;28;19917;-85
2022/03/07 07:26:25;;;;;;;;;;;18.70;99.90;;;;;;5019315;28;19913;-84
2022/03/07 07:28:51;;;;;;;;;;;17.80;99.90;;;;;;5022607;28;19921;-85
2022/03/07 07:31:17;;;;;;;;;;;18.80;99.90;;;;;;5018236;28;19917;-85
2022/03/07 07:33:42;;;;;;;;;;;20.40;99.90;;;;;;5017826;28;19918;-83
2022/03/07 07:36:08;;;;;;;;;;;21.30;99.90;;;;;;5018807;28;19936;-83
2022/03/07 07:38:33;;;;;;;;;;;21.90;99.90;;;;;;5021507;28;19924;-83
2022/03/07 07:40:58;;;;;;;;;;;22.30;99.90;;;;;;5016972;28;19975;-82
2022/03/07 07:43:24;;;;;;;;;;;22.70;99.90;;;;;;5019308;28;19913;-83
2022/03/07 07:45:49;;;;;;;;;;;22.40;99.90;;;;;;5021068;28;19924;-82
2022/03/07 07:48:15;;;;;;;;;;;19.00;99.90;;;;;;5022633;28;19932;-82
2022/03/07 07:50:40;;;;;;;;;;;15.90;99.90;;;;;;5025104;28;19913;-83
2022/03/07 07:53:06;;;;;;;;;;;16.80;99.90;;;;;;5022045;28;19924;-83
2022/03/07 07:55:32;;;;;;;;;;;16.90;99.90;;;;;;5025531;28;19913;-83
2022/03/07 07:57:57;;;;;;;;;;;17.30;99.90;;;;;;5024232;28;19925;-83
2022/03/07 08:00:23;;;;;;;;;;;15.80;99.90;;;;;;5040751;28;19999;-83
2022/03/07 08:02:49;;;;;;;;;;;15.50;99.90;;;;;;5023568;28;19913;-84
2022/03/07 08:05:16;;;;;;;;;;;14.90;99.90;;;;;;5023098;28;19914;-83
2022/03/07 08:07:42;;;;;;;;;;;15.30;99.90;;;;;;5027551;28;19936;-83
2022/03/07 08:10:09;;;;;;;;;;;15.40;99.90;;;;;;5024368;28;19997;-83
2022/03/07 08:12:34;;;;;;;;;;;16.20;99.90;;;;;;5023669;28;19921;-84
2022/03/07 08:15:00;;;;;;;;;;;16.70;99.90;;;;;;5024548;28;20293;-83
2022/03/07 08:17:25;;;;;;;;;;;18.90;99.90;;;;;;5039194;28;19917;-83
2022/03/07 08:19:51;;;;;;;;;;;20.00;99.90;;;;;;5030994;28;20420;-84
2022/03/07 08:22:16;;;;;;;;;;;20.20;99.90;;;;;;5026175;28;19913;-83
2022/03/07 08:24:42;;;;;;;;;;;19.50;99.90;;;;;;5046146;28;19909;-83
2022/03/07 08:27:07;;;;;;;;;;;18.70;99.90;;;;;;5054992;28;19961;-83
2022/03/07 08:29:33;;;;;;;;;;;18.50;99.90;;;;;;5023451;28;19914;-84
2022/03/07 08:31:58;;;;;;;;;;;18.00;99.90;;;;;;5025079;28;19921;-83
2022/03/07 08:34:24;;;;;;;;;;;16.90;99.90;;;;;;5041672;28;19928;-83
2022/03/07 08:36:49;;;;;;;;;;;17.90;99.90;;;;;;5029883;28;19917;-84
2022/03/07 08:39:15;;;;;;;;;;;17.70;99.90;;;;;;5039938;28;19923;-83
2022/03/07 08:41:40;;;;;;;;;;;19.30;99.90;;;;;;5039479;28;19913;-84
2022/03/07 08:44:06;;;;;;;;;;;20.10;99.90;;;;;;5022504;28;20301;-84
2022/03/07 08:46:31;;;;;;;;;;;20.70;99.90;;;;;;5021469;28;19913;-83
2022/03/07 08:48:57;;;;;;;;;;;20.70;99.90;;;;;;5024711;28;19914;-83
2022/03/07 08:51:22;;;;;;;;;;;21.10;99.90;;;;;;5021077;28;19913;-84
2022/03/07 08:53:48;;;;;;;;;;;21.40;99.90;;;;;;5026680;28;19972;-82
2022/03/07 08:56:14;;;;;;;;;;;20.50;99.90;;;;;;5021906;28;19953;-83
2022/03/07 08:58:39;;;;;;;;;;;20.00;99.90;;;;;;5020254;28;19914;-84
2022/03/07 09:01:05;;;;;;;;;;;19.70;99.90;;;;;;5020356;28;19929;-83
2022/03/07 09:03:30;;;;;;;;;;;19.00;99.90;;;;;;5021657;28;19973;-84
2022/03/07 09:05:56;;;;;;;;;;;19.10;99.90;;;;;;5023514;28;19918;-84
2022/03/07 09:08:21;;;;;;;;;;;18.50;99.90;;;;;;5020810;28;19913;-83
2022/03/07 09:10:47;;;;;;;;;;;18.30;99.90;;;;;;5021885;28;19920;-81
2022/03/07 09:13:12;;;;;;;;;;;18.20;99.90;;;;;;5024033;28;19932;-82
2022/03/07 09:15:39;;;;;;;;;;;19.20;99.90;;;;;;5024018;28;19913;-83
2022/03/07 09:18:05;;;;;;;;;;;18.80;99.90;;;;;;5018874;28;19921;-83
2022/03/07 09:20:30;;;;;;;;;;;18.40;99.90;;;;;;5023119;28;19925;-83
2022/03/07 09:22:56;;;;;;;;;;;18.10;99.90;;;;;;5025770;28;20015;-83
2022/03/07 09:25:21;;;;;;;;;;;17.50;99.90;;;;;;5022751;28;19914;-83
2022/03/07 09:27:49;;;;;;;;;;;17.40;99.90;;;;;;5023279;28;19941;-83
2022/03/07 09:30:14;;;;;;;;;;;17.90;99.90;;;;;;5019481;28;19921;-83
2022/03/07 09:32:40;;;;;;;;;;;18.70;99.90;;;;;;5023259;28;19914;-84
2022/03/07 09:35:06;;;;;;;;;;;19.90;99.90;;;;;;5020894;28;20011;-83
2022/03/07 09:37:32;;;;;;;;;;;19.70;99.90;;;;;;5021124;28;19913;-83
2022/03/07 09:39:57;;;;;;;;;;;20.70;99.90;;;;;;5027250;28;19920;-83
2022/03/07 09:42:23;;;;;;;;;;;20.30;99.90;;;;;;5023665;28;19914;-83
2022/03/07 09:44:52;;;;;;;;;;;19.40;99.90;;;;;;5016784;28;19921;-83
2022/03/07 09:47:19;;;;;;;;;;;19.80;99.90;;;;;;5018402;28;19914;-82
2022/03/07 09:49:45;;;;;;;;;;;20.10;99.90;;;;;;5032283;28;19913;-83
2022/03/07 09:52:11;;;;;;;;;;;19.90;99.90;;;;;;5027665;28;19920;-83
2022/03/07 09:54:36;;;;;;;;;;;19.50;99.90;;;;;;5023762;28;19976;-84
2022/03/07 09:57:02;;;;;;;;;;;19.60;99.90;;;;;;5024954;28;19952;-83
2022/03/07 09:59:28;;;;;;;;;;;19.70;99.90;;;;;;5042608;28;19969;-83
2022/03/07 10:01:59;;;;;;;;;;;19.80;99.90;;;;;;5025749;28;19910;-83
2022/03/07 10:04:25;;;;;;;;;;;19.00;99.90;;;;;;5024172;28;19919;-83
2022/03/07 10:06:50;;;;;;;;;;;19.50;99.90;;;;;;5023693;28;19988;-83
2022/03/07 10:09:20;;;;;;;;;;;19.60;99.90;;;;;;5023926;28;19969;-83
2022/03/07 10:11:53;;;;;;;;;;;19.30;99.90;;;;;;5024220;28;20295;-83
2022/03/07 10:14:29;;;;;;;;;;;18.60;99.90;;;;;;5027758;28;19952;-83
2022/03/07 10:16:54;;;;;;;;;;;19.10;99.90;;;;;;5041691;28;19909;-82
2022/03/07 10:19:19;;;;;;;;;;;18.50;99.90;;;;;;5033689;28;20393;-82
2022/03/07 10:21:46;;;;;;;;;;;18.70;99.90;;;;;;5017574;28;19922;-83
2022/03/07 10:24:12;;;;;;;;;;;18.70;99.90;;;;;;5025691;28;19917;-83
2022/03/07 10:26:37;;;;;;;;;;;18.90;99.90;;;;;;5047350;28;19937;-83
2022/03/07 10:29:04;;;;;;;;;;;18.80;99.90;;;;;;5026073;28;19916;-84
2022/03/07 10:31:29;;;;;;;;;;;19.00;99.90;;;;;;5026933;28;20011;-83
2022/03/07 10:34:02;;;;;;;;;;;18.60;99.90;;;;;;5027095;28;19918;-83
2022/03/07 10:36:39;;;;;;;;;;;18.90;99.90;;;;;;5026234;28;19935;-83
2022/03/07 10:39:06;;;;;;;;;;;19.20;99.90;;;;;;5026074;28;19918;-83
2022/03/07 10:41:36;;;;;;;;;;;19.90;99.90;;;;;;5023060;28;19913;-83
2022/03/07 10:44:03;;;;;;;;;;;19.70;99.90;;;;;;5028220;28;19910;-83
2022/03/07 10:46:28;;;;;;;;;;;19.50;99.90;;;;;;5026539;28;19918;-84
2022/03/07 10:48:54;;;;;;;;;;;19.20;99.90;;;;;;5018520;28;20130;-83
2022/03/07 10:51:20;;;;;;;;;;;19.20;99.90;;;;;;5021957;28;19910;-83
2022/03/07 10:53:46;;;;;;;;;;;19.50;99.90;;;;;;5026839;28;19940;-83
2022/03/07 10:56:13;;;;;;;;;;;19.80;99.90;;;;;;5026026;28;19913;-83
2022/03/07 10:58:48;;;;;;;;;;;20.50;99.90;;;;;;5027368;28;19936;-83
2022/03/07 11:01:14;;;;;;;;;;;20.90;99.90;;;;;;5024389;28;19972;-83
2022/03/07 11:03:40;;;;;;;;;;;20.30;99.90;;;;;;5025483;28;19917;-83
2022/03/07 11:06:05;;;;;;;;;;;20.80;99.90;;;;;;5024577;28;19973;-83
2022/03/07 11:08:31;;;;;;;;;;;21.00;99.90;;;;;;5024564;28;19920;-83
2022/03/07 11:10:57;;;;;;;;;;;20.30;99.90;;;;;;5024720;28;19920;-82
2022/03/07 11:13:26;;;;;;;;;;;19.70;99.90;;;;;;5023587;28;19917;-83
2022/03/07 11:15:53;;;;;;;;;;;20.10;99.90;;;;;;5030014;28;21285;-84
2022/03/07 11:18:19;;;;;;;;;;;19.90;99.90;;;;;;5031163;28;19949;-83
2022/03/07 11:20:45;;;;;;;;;;;20.10;99.90;;;;;;5025390;28;19924;-83
2022/03/07 11:23:11;;;;;;;;;;;20.30;99.90;;;;;;5022716;28;20008;-82
2022/03/07 11:25:37;;;;;;;;;;;20.10;99.90;;;;;;5025649;28;19944;-83
2022/03/07 11:28:03;;;;;;;;;;;19.70;99.90;;;;;;5040686;28;19914;-83
2022/03/07 11:30:32;;;;;;;;;;;19.30;99.90;;;;;;5025061;28;19921;-83
2022/03/07 11:33:07;;;;;;;;;;;18.40;99.90;;;;;;5027142;28;19918;-83
2022/03/07 11:35:33;;;;;;;;;;;18.50;99.90;;;;;;5027565;28;19909;-83
2022/03/07 11:38:08;;;;;;;;;;;18.80;99.90;;;;;;5026273;28;19913;-83
2022/03/07 11:40:34;;;;;;;;;;;18.80;99.90;;;;;;5024259;28;19913;-83
2022/03/07 11:43:06;;;;;;;;;;;17.40;99.90;;;;;;5016352;28;19924;-83
2022/03/07 11:45:37;;;;;;;;;;;18.30;99.90;;;;;;5017199;28;19992;-82
2022/03/07 11:48:11;;;;;;;;;;;18.40;99.90;;;;;;5021639;28;19921;-82
2022/03/07 11:50:37;;;;;;;;;;;18.00;99.90;;;;;;5022566;28;19920;-83
2022/03/07 11:53:03;;;;;;;;;;;17.30;99.90;;;;;;5019181;28;19913;-83
2022/03/07 11:55:29;;;;;;;;;;;17.40;99.90;;;;;;5024181;28;19973;-82
2022/03/07 11:58:01;;;;;;;;;;;17.40;99.90;;;;;;5021184;28;19914;-83
2022/03/07 12:00:32;;;;;;;;;;;17.10;99.90;;;;;;5024614;28;19924;-83
2022/03/07 12:03:08;;;;;;;;;;;17.40;99.90;;;;;;5024735;28;19913;-82
2022/03/07 12:05:34;;;;;;;;;;;17.50;99.90;;;;;;5043322;28;19914;-83
2022/03/07 12:08:13;;;;;;;;;;;16.90;99.90;;;;;;5028559;28;19920;-82
2022/03/07 12:10:53;;;;;;;;;;;17.60;99.90;;;;;;5039090;28;20328;-82
2022/03/07 12:13:18;;;;;;;;;;;17.70;99.90;;;;;;5034305;28;20471;-82
2022/03/07 12:15:45;;;;;;;;;;;17.00;99.90;;;;;;5023842;28;19913;-82
2022/03/07 12:18:10;;;;;;;;;;;16.80;99.90;;;;;;5019607;28;19909;-82
2022/03/07 12:20:44;;;;;;;;;;;16.80;99.90;;;;;;5026130;28;19993;-82
2022/03/07 12:23:10;;;;;;;;;;;17.50;99.90;;;;;;5029832;28;19913;-82
2022/03/07 12:25:36;;;;;;;;;;;18.10;99.90;;;;;;5026024;28;20005;-82
2022/03/07 12:28:03;;;;;;;;;;;18.40;99.90;;;;;;5041262;28;19909;-83
2022/03/07 12:30:29;;;;;;;;;;;18.30;99.90;;;;;;5044952;28;19945;-82
2022/03/07 12:32:54;;;;;;;;;;;18.10;99.90;;;;;;5032085;28;19921;-82
2022/03/07 12:35:19;;;;;;;;;;;18.40;99.90;;;;;;5028349;28;19917;-83
2022/03/07 12:37:45;;;;;;;;;;;17.90;99.90;;;;;;5033386;28;19971;-79
2022/03/07 12:40:11;;;;;;;;;;;17.70;99.90;;;;;;5029057;28;19924;-84
2022/03/07 12:42:38;;;;;;;;;;;17.90;99.90;;;;;;5021958;28;20398;-82
2022/03/07 12:45:05;;;;;;;;;;;17.50;99.90;;;;;;5016493;28;19924;-82
2022/03/07 12:47:32;;;;;;;;;;;17.10;99.90;;;;;;5012486;28;19964;-82
2022/03/07 12:49:58;;;;;;;;;;;17.40;99.90;;;;;;5022218;28;19917;-81
2022/03/07 12:52:31;;;;;;;;;;;16.30;99.90;;;;;;5025540;28;19914;-82
2022/03/07 12:54:58;;;;;;;;;;;16.50;99.90;;;;;;5021811;28;19926;-81
2022/03/07 12:57:25;;;;;;;;;;;17.10;99.90;;;;;;5018139;28;19921;-81
2022/03/07 13:00:03;;;;;;;;;;;17.50;99.90;;;;;;5027478;28;19913;-81
2022/03/07 13:02:49;;;;;;;;;;;17.50;99.90;;;;;;5022437;28;19917;-81
2022/03/07 13:05:16;;;;;;;;;;;17.60;99.90;;;;;;5025660;28;20429;-81
2022/03/07 13:07:58;;;;;;;;;;;17.00;99.90;;;;;;5034931;28;19944;-81
2022/03/07 13:10:24;;;;;;;;;;;16.30;99.90;;;;;;5026897;28;19961;-81
2022/03/07 13:12:53;;;;;;;;;;;16.20;99.90;;;;;;5029599;28;19909;-81
2022/03/07 13:15:19;;;;;;;;;;;15.90;99.90;;;;;;5025640;28;19928;-81
2022/03/07 13:17:45;;;;;;;;;;;15.40;99.90;;;;;;5027550;28;19981;-81
2022/03/07 13:20:11;;;;;;;;;;;15.10;99.90;;;;;;5048819;28;19909;-81
2022/03/07 13:22:36;;;;;;;;;;;15.20;99.90;;;;;;5028309;28;20016;-82
2022/03/07 13:25:04;;;;;;;;;;;15.30;99.90;;;;;;5027773;28;19914;-81
2022/03/07 13:27:30;;;;;;;;;;;15.10;99.90;;;;;;5025889;28;19977;-82
2022/03/07 13:30:06;;;;;;;;;;;15.00;99.90;;;;;;5025120;28;19914;-82
2022/03/07 13:32:33;;;;;;;;;;;14.70;99.90;;;;;;5021232;28;19936;-81
2022/03/07 13:34:58;;;;;;;;;;;15.00;99.90;;;;;;5026522;28;20309;-81
2022/03/07 13:37:38;;;;;;;;;;;15.50;99.90;;;;;;5039750;28;19984;-81
2022/03/07 13:40:19;;;;;;;;;;;15.60;99.90;;;;;;5024646;28;20394;-81
2022/03/07 13:42:54;;;;;;;;;;;15.60;99.90;;;;;;5008316;28;19929;-81
2022/03/07 13:45:27;;;;;;;;;;;15.50;99.90;;;;;;5026602;28;20366;-81
2022/03/07 13:48:00;;;;;;;;;;;15.20;99.90;;;;;;5026085;28;19920;-81
2022/03/07 13:50:26;;;;;;;;;;;14.80;99.90;;;;;;5022181;28;20349;-81
2022/03/07 13:53:04;;;;;;;;;;;14.40;99.90;;;;;;5024876;28;19984;-81
2022/03/07 13:55:34;;;;;;;;;;;14.00;99.90;;;;;;5008864;28;20004;-81
2022/03/07 13:58:00;;;;;;;;;;;14.10;99.90;;;;;;5022937;28;19910;-80
2022/03/07 14:00:27;;;;;;;;;;;14.00;99.90;;;;;;5042771;28;19935;-81
2022/03/07 14:02:55;;;;;;;;;;;13.70;99.90;;;;;;5043043;28;19931;-81
2022/03/07 14:05:21;;;;;;;;;;;14.20;99.90;;;;;;5042675;28;20366;-81
2022/03/07 14:07:56;;;;;;;;;;;13.90;99.90;;;;;;5021463;28;19913;-81
2022/03/07 14:10:23;;;;;;;;;;;14.20;99.90;;;;;;5004732;28;19989;-81
2022/03/07 14:12:53;;;;;;;;;;;14.10;99.90;;;;;;5022475;28;19909;-81
2022/03/07 14:15:32;;;;;;;;;;;14.30;99.90;;;;;;5023348;28;20392;-81
2022/03/07 14:18:05;;;;;;;;;;;14.10;99.90;;;;;;5033521;28;19947;-82